Home > Products > Valid Products > TAF

000
FTUS45 KPSR 310931 AAA
TAFBLH
TAF AMD
KBLH 310931Z 3110/0106 19008KT P6SM BKN250
     FM311900 18011G20KT P6SM BKN250
     FM010200 23010KT P6SM SCT250=



000
FTUS45 KPSR 310908 AAB
TAFPHX
TAF AMD
KPHX 310908Z 3109/0106 11006KT P6SM FEW110 SCT250
     FM312100 23008KT P6SM SCT100 BKN250
     FM010300 16012KT P6SM VCTS BKN100CB BKN200=



000
FTUS45 KPSR 310707 AAA
TAFPHX
TAF AMD
KPHX 310707Z 3107/0106 14012KT P6SM VCSH SCT100 BKN200
     FM310800 11006KT P6SM SCT120 BKN250
     FM312100 23008KT P6SM SCT100 BKN250
     FM010300 16012KT P6SM VCTS BKN100CB BKN200=



000
FTUS45 KPSR 310520
TAFIWA
TAF
KIWA 310520Z 3106/0106 19007KT P6SM VCSH BKN100 BKN200
     FM310800 12006KT P6SM SCT120 BKN250
     FM312000 24007KT P6SM SCT100 BKN250
     FM010200 15014KT P6SM VCTS BKN100CB BKN200
      AMD LTD TO CLD VIS AND WIND TIL 311300=



000
FTUS45 KPSR 310520
TAFIWA
TAF
KIWA 310520Z 3106/0106 19007KT P6SM VCSH BKN100 BKN200
     FM310800 12006KT P6SM SCT120 BKN250
     FM312000 24007KT P6SM SCT100 BKN250
     FM010200 15014KT P6SM VCTS BKN100CB BKN200
      AMD LTD TO CLD VIS AND WIND TIL 311300=



000
FTUS45 KPSR 310520
TAFPHX
TAF
KPHX 310520Z 3106/0106 VRB05KT P6SM VCSH SCT100 BKN200
     FM310800 11006KT P6SM SCT120 BKN250
     FM312100 23008KT P6SM SCT100 BKN250
     FM010300 16012KT P6SM VCTS BKN100CB BKN200=



000
FTUS45 KPSR 310520
TAFIWA
TAF
KIWA 310520Z 3106/0106 19007KT P6SM VCSH BKN100 BKN200
     FM310800 12006KT P6SM SCT120 BKN250
     FM312000 24007KT P6SM SCT100 BKN250
     FM010200 15014KT P6SM VCTS BKN100CB BKN200
      AMD LTD TO CLD VIS AND WIND TIL 311300=



000
FTUS45 KPSR 310520
TAFIWA
TAF
KIWA 310520Z 3106/0106 19007KT P6SM VCSH BKN100 BKN200
     FM310800 12006KT P6SM SCT120 BKN250
     FM312000 24007KT P6SM SCT100 BKN250
     FM010200 15014KT P6SM VCTS BKN100CB BKN200
      AMD LTD TO CLD VIS AND WIND TIL 311300=



000
FTUS45 KPSR 310520
TAFPHX
TAF
KPHX 310520Z 3106/0106 VRB05KT P6SM VCSH SCT100 BKN200
     FM310800 11006KT P6SM SCT120 BKN250
     FM312100 23008KT P6SM SCT100 BKN250
     FM010300 16012KT P6SM VCTS BKN100CB BKN200=



000
FTUS45 KPSR 310520
TAFBLH
TAF
KBLH 310520Z 3106/0106 26007KT P6SM BKN250
     FM310900 VRB05KT P6SM BKN250
     FM311900 18011G20KT P6SM BKN250
     FM010200 23010KT P6SM SCT250=



000
FTUS45 KPSR 310520
TAFIPL
TAF
KIPL 310520Z 3106/0106 27010KT P6SM BKN250
     FM311500 VRB04KT P6SM BKN250
     FM312100 17007KT P6SM SCT250
     FM010100 26011KT P6SM SCT250=



000
FTUS45 KPSR 310520
TAFIPL
TAF
KIPL 310520Z 3106/0106 27010KT P6SM BKN250
     FM311500 VRB04KT P6SM BKN250
     FM312100 17007KT P6SM SCT250
     FM010100 26011KT P6SM SCT250=



000
FTUS45 KPSR 310520
TAFBLH
TAF
KBLH 310520Z 3106/0106 26007KT P6SM BKN250
     FM310900 VRB05KT P6SM BKN250
     FM311900 18011G20KT P6SM BKN250
     FM010200 23010KT P6SM SCT250=



000
FTUS45 KPSR 310450 AAD
TAFIWA
TAF AMD
KIWA 310450Z 3105/3124 21011KT P6SM VCSH BKN120 BKN200
     FM310700 12006KT P6SM SCT120 BKN250
     FM312100 24007KT P6SM SCT100
      AMD LTD TO CLD VIS AND WIND TIL 311300=



000
FTUS45 KPSR 310450 AAD
TAFIWA
TAF AMD
KIWA 310450Z 3105/3124 21011KT P6SM VCSH BKN120 BKN200
     FM310700 12006KT P6SM SCT120 BKN250
     FM312100 24007KT P6SM SCT100
      AMD LTD TO CLD VIS AND WIND TIL 311300=



000
FTUS45 KPSR 310439 AAE
TAFPHX
TAF AMD
KPHX 310439Z 3105/3124 18010G19KT P6SM SCT100 BKN200
     FM310700 12006KT P6SM SCT120 BKN250
     FM312100 23008KT P6SM SCT100=



000
FTUS45 KPSR 310356 AAD
TAFPHX
TAF AMD
KPHX 310356Z 3104/3124 15012KT P6SM SCT090 BKN120 BKN200
     FM310410 25010KT P6SM VCSH BKN100 BKN200
     FM310700 12006KT P6SM SCT120 BKN250
     FM312100 23008KT P6SM SCT100=



000
FTUS45 KPSR 310315 AAC
TAFPHX
TAF AMD
KPHX 310315Z 3103/3124 17012G20KT P6SM BKN090 BKN120 BKN200
     FM310430 21010KT P6SM VCSH BKN100 OVC150
     FM310600 12006KT P6SM SCT120 BKN250
     FM312100 23008KT P6SM SCT100=



000
FTUS45 KPSR 310245 AAC
TAFIWA
TAF AMD
KIWA 310245Z 3103/3124 23012KT P6SM VCTS BKN100CB BKN250
      TEMPO 3103/3104 23018G30KT 3SM TSRA BKN080CB OVC150
     FM310500 12006KT P6SM SCT120 BKN250
     FM312100 24007KT P6SM SCT100
      AMD LTD TO CLD VIS AND WIND 3103/3113=



000
FTUS45 KPSR 310245 AAC
TAFIWA
TAF AMD
KIWA 310245Z 3103/3124 23012KT P6SM VCTS BKN100CB BKN250
      TEMPO 3103/3104 23018G30KT 3SM TSRA BKN080CB OVC150
     FM310500 12006KT P6SM SCT120 BKN250
     FM312100 24007KT P6SM SCT100
      AMD LTD TO CLD VIS AND WIND 3103/3113=



000
FTUS45 KPSR 310115 AAB
TAFPHX
TAF AMD
KPHX 310115Z 3101/3124 24005KT P6SM FEW100 SCT250
     FM310145 20013G28KT P6SM VCTS SCT090CB BKN250
     FM310330 11007KT P6SM SCT120 BKN250
     FM312100 23008KT P6SM SCT100=



000
FTUS45 KPSR 310109 AAB
TAFIWA
TAF AMD
KIWA 310109Z 3101/3124 28006KT P6SM FEW100 SCT250
     FM310215 23012G19KT P6SM VCTS BKN100CB BKN250
     FM310430 12006KT P6SM SCT120 BKN250
     FM312100 24007KT P6SM SCT100
      AMD LTD TO CLD VIS AND WIND 3103/3113=



000
FTUS45 KPSR 310109 AAB
TAFIWA
TAF AMD
KIWA 310109Z 3101/3124 28006KT P6SM FEW100 SCT250
     FM310215 23012G19KT P6SM VCTS BKN100CB BKN250
     FM310430 12006KT P6SM SCT120 BKN250
     FM312100 24007KT P6SM SCT100
      AMD LTD TO CLD VIS AND WIND 3103/3113=



000
FTUS45 KPSR 310051 AAA
TAFIWA
TAF AMD
KIWA 310051Z 3101/3124 28006KT P6SM FEW100 SCT250
     FM310300 20015KT P6SM VCTS BKN100CB BKN250
     FM310500 12006KT P6SM SCT120 BKN250
     FM312100 24007KT P6SM SCT100
      AMD LTD TO CLD VIS AND WIND 3103/3113=



000
FTUS45 KPSR 310051 AAA
TAFIWA
TAF AMD
KIWA 310051Z 3101/3124 28006KT P6SM FEW100 SCT250
     FM310300 20015KT P6SM VCTS BKN100CB BKN250
     FM310500 12006KT P6SM SCT120 BKN250
     FM312100 24007KT P6SM SCT100
      AMD LTD TO CLD VIS AND WIND 3103/3113=



000
FTUS45 KPSR 310051 AAA
TAFIWA
TAF AMD
KIWA 310051Z 3101/3124 28006KT P6SM FEW100 SCT250
     FM310300 20015KT P6SM VCTS BKN100CB BKN250
     FM310500 12006KT P6SM SCT120 BKN250
     FM312100 24007KT P6SM SCT100
      AMD LTD TO CLD VIS AND WIND 3103/3113=



000
FTUS45 KPSR 310051 AAA
TAFIWA
TAF AMD
KIWA 310051Z 3101/3124 28006KT P6SM FEW100 SCT250
     FM310300 20015KT P6SM VCTS BKN100CB BKN250
     FM310500 12006KT P6SM SCT120 BKN250
     FM312100 24007KT P6SM SCT100
      AMD LTD TO CLD VIS AND WIND 3103/3113=



000
FTUS45 KPSR 310050 AAA
TAFPHX
TAF AMD
KPHX 310050Z 3101/3124 24005KT P6SM FEW100 SCT250
     FM310215 19013G22KT P6SM VCTS SCT090CB BKN250
     FM310400 11007KT P6SM SCT120 BKN250
     FM312100 23008KT P6SM SCT100=



000
FTUS45 KPSR 302320
TAFIPL
TAF
KIPL 302320Z 3100/3124 26016KT P6SM FEW250
     FM310800 28006KT P6SM SCT250
     FM311600 VRB04KT P6SM SCT250
     FM312100 17008KT P6SM FEW250=



000
FTUS45 KPSR 302320
TAFBLH
TAF
KBLH 302320Z 3100/3124 23013KT P6SM FEW250
     FM310800 VRB05KT P6SM SCT250
     FM311900 18011G20KT P6SM SCT250=



000
FTUS45 KPSR 302320
TAFIWA
TAF
KIWA 302320Z 3100/3124 28006KT P6SM FEW100 SCT250
     FM310300 15015KT P6SM VCTS BKN100CB BKN250
     FM310500 12006KT P6SM SCT120 BKN250
     FM312100 24007KT P6SM SCT100
      AMD LTD TO CLD VIS AND WIND 3103/3113=



000
FTUS45 KPSR 302320
TAFIPL
TAF
KIPL 302320Z 3100/3124 26016KT P6SM FEW250
     FM310800 28006KT P6SM SCT250
     FM311600 VRB04KT P6SM SCT250
     FM312100 17008KT P6SM FEW250=



000
FTUS45 KPSR 302320
TAFIWA
TAF
KIWA 302320Z 3100/3124 28006KT P6SM FEW100 SCT250
     FM310300 15015KT P6SM VCTS BKN100CB BKN250
     FM310500 12006KT P6SM SCT120 BKN250
     FM312100 24007KT P6SM SCT100
      AMD LTD TO CLD VIS AND WIND 3103/3113=



000
FTUS45 KPSR 302320
TAFPHX
TAF
KPHX 302320Z 3100/3124 24005KT P6SM FEW100 SCT250
     FM310400 16014KT P6SM SCT100 BKN250
     FM310600 11007KT P6SM SCT120 BKN250
     FM312100 23008KT P6SM SCT100=



000
FTUS45 KPSR 302320
TAFIWA
TAF
KIWA 302320Z 3100/3124 28006KT P6SM FEW100 SCT250
     FM310300 15015KT P6SM VCTS BKN100CB BKN250
     FM310500 12006KT P6SM SCT120 BKN250
     FM312100 24007KT P6SM SCT100
      AMD LTD TO CLD VIS AND WIND 3103/3113=



000
FTUS45 KPSR 302320
TAFBLH
TAF
KBLH 302320Z 3100/3124 23013KT P6SM FEW250
     FM310800 VRB05KT P6SM SCT250
     FM311900 18011G20KT P6SM SCT250=



000
FTUS45 KPSR 302320
TAFIWA
TAF
KIWA 302320Z 3100/3124 28006KT P6SM FEW100 SCT250
     FM310300 15015KT P6SM VCTS BKN100CB BKN250
     FM310500 12006KT P6SM SCT120 BKN250
     FM312100 24007KT P6SM SCT100
      AMD LTD TO CLD VIS AND WIND 3103/3113=



000
FTUS45 KPSR 302320
TAFPHX
TAF
KPHX 302320Z 3100/3124 24005KT P6SM FEW100 SCT250
     FM310400 16014KT P6SM SCT100 BKN250
     FM310600 11007KT P6SM SCT120 BKN250
     FM312100 23008KT P6SM SCT100=



000
FTUS45 KPSR 302020 AAA
TAFPHX
TAF AMD
KPHX 302020Z 3020/3118 VRB05KT P6SM FEW080 SCT150
     FM302200 27007KT P6SM FEW100 BKN250
     FM310400 12014KT P6SM SCT110 BKN250
     FM310600 11007KT P6SM SCT120 BKN250=



000
FTUS45 KPSR 302020 AAA
TAFPHX
TAF AMD
KPHX 302020Z 3020/3118 VRB05KT P6SM FEW080 SCT150
     FM302200 27007KT P6SM FEW100 BKN250
     FM310400 12014KT P6SM SCT110 BKN250
     FM310600 11007KT P6SM SCT120 BKN250=



000
FTUS45 KPSR 301722
TAFIWA
TAF
KIWA 301722Z 3018/3118 13005KT P6SM FEW110 SCT150
     FM301900 25007KT P6SM SCT110 BKN250
     FM310300 14015KT P6SM VCTS BKN120CB BKN250
     FM310600 14007KT P6SM SCT120 BKN250=



000
FTUS45 KPSR 301722
TAFIWA
TAF
KIWA 301722Z 3018/3118 13005KT P6SM FEW110 SCT150
     FM301900 25007KT P6SM SCT110 BKN250
     FM310300 14015KT P6SM VCTS BKN120CB BKN250
     FM310600 14007KT P6SM SCT120 BKN250=



000
FTUS45 KPSR 301722
TAFPHX
TAF
KPHX 301722Z 3018/3118 12006KT P6SM FEW110 SCT150
     FM302200 27007KT P6SM SCT110 BKN250
     FM310400 12014KT P6SM SCT110 BKN250
     FM310600 11007KT P6SM SCT120 BKN250=



000
FTUS45 KPSR 301722
TAFIPL
TAF
KIPL 301722Z 3018/3118 27006KT P6SM SKC
     FM302200 26015KT P6SM FEW250
     FM310800 27006KT P6SM SKC=



000
FTUS45 KPSR 301722
TAFBLH
TAF
KBLH 301722Z 3018/3118 18010KT P6SM SCT250
     FM310100 22008KT P6SM FEW150 SCT250
     FM310800 VRB04KT P6SM SCT250=



000
FTUS45 KPSR 301457 AAA
TAFPHX
TAF AMD
KPHX 301457Z 3015/3112 10007KT P6SM FEW100 SCT150
     FM302000 22007KT P6SM SCT100
     FM310800 12009KT P6SM SCT120 BKN250=



000
FTUS45 KPSR 301120
TAFBLH
TAF
KBLH 301120Z 3012/3112 15006KT P6SM SCT150
     FM301800 24012KT P6SM FEW120 SCT250=



000
FTUS45 KPSR 301120
TAFIWA
TAF
KIWA 301120Z 3012/3112 12008KT P6SM SCT150
     FM301900 25007KT P6SM FEW150
     FM310200 14012KT P6SM VCTS BKN120CB
     FM310700 14010KT P6SM BKN120 BKN250
      AMD LTD TO CLD VIS AND WIND TIL 301300=



000
FTUS45 KPSR 301120
TAFPHX
TAF
KPHX 301120Z 3012/3112 10007KT P6SM SCT150
     FM302000 22007KT P6SM SCT100
     FM310800 12009KT P6SM SCT120 BKN250=



000
FTUS45 KPSR 301120
TAFIWA
TAF
KIWA 301120Z 3012/3112 12008KT P6SM SCT150
     FM301900 25007KT P6SM FEW150
     FM310200 14012KT P6SM VCTS BKN120CB
     FM310700 14010KT P6SM BKN120 BKN250
      AMD LTD TO CLD VIS AND WIND TIL 301300=



000
FTUS45 KPSR 301120
TAFIPL
TAF
KIPL 301120Z 3012/3112 27010KT P6SM SKC
     FM301400 VRB04KT P6SM SKC
     FM302200 26015KT P6SM FEW250=



000
FTUS45 KPSR 301120
TAFIWA
TAF
KIWA 301120Z 3012/3112 12008KT P6SM SCT150
     FM301900 25007KT P6SM FEW150
     FM310200 14012KT P6SM VCTS BKN120CB
     FM310700 14010KT P6SM BKN120 BKN250
      AMD LTD TO CLD VIS AND WIND TIL 301300=



000
FTUS45 KPSR 301120
TAFPHX
TAF
KPHX 301120Z 3012/3112 10007KT P6SM SCT150
     FM302000 22007KT P6SM SCT100
     FM310800 12009KT P6SM SCT120 BKN250=



000
FTUS45 KPSR 301120
TAFBLH
TAF
KBLH 301120Z 3012/3112 15006KT P6SM SCT150
     FM301800 24012KT P6SM FEW120 SCT250=



000
FTUS45 KPSR 301120
TAFIWA
TAF
KIWA 301120Z 3012/3112 12008KT P6SM SCT150
     FM301900 25007KT P6SM FEW150
     FM310200 14012KT P6SM VCTS BKN120CB
     FM310700 14010KT P6SM BKN120 BKN250
      AMD LTD TO CLD VIS AND WIND TIL 301300=



000
FTUS45 KPSR 301120
TAFIPL
TAF
KIPL 301120Z 3012/3112 27010KT P6SM SKC
     FM301400 VRB04KT P6SM SKC
     FM302200 26015KT P6SM FEW250=



000
FTUS45 KPSR 300845 AAA
TAFPHX
TAF AMD
KPHX 300845Z 3009/3106 11009KT P6SM SCT120
     FM302000 22007KT P6SM SCT100=



000
FTUS45 KPSR 300524
TAFBLH
TAF
KBLH 300524Z 3006/3106 25007KT P6SM FEW250
     FM301100 34006KT P6SM FEW120
     FM301800 18012KT P6SM FEW120 SCT250=



000
FTUS45 KPSR 300524
TAFIWA
TAF
KIWA 300524Z 3006/3106 12008KT P6SM SCT120 BKN200
     FM301900 25007KT P6SM SCT100
     FM310400 13007KT P6SM FEW120 BKN250
      AMD LTD TO CLD VIS AND WIND TIL 301300=



000
FTUS45 KPSR 300524
TAFPHX
TAF
KPHX 300524Z 3006/3106 11009KT P6SM SCT120 BKN200
     FM302000 22007KT P6SM SCT100=



000
FTUS45 KPSR 300524
TAFIPL
TAF
KIPL 300524Z 3006/3106 27010KT P6SM SKC
     FM301400 VRB04KT P6SM SKC
     FM302200 26014KT P6SM FEW250=



000
FTUS45 KPSR 300524
TAFIWA
TAF
KIWA 300524Z 3006/3106 12008KT P6SM SCT120 BKN200
     FM301900 25007KT P6SM SCT100
     FM310400 13007KT P6SM FEW120 BKN250
      AMD LTD TO CLD VIS AND WIND TIL 301300=



000
FTUS45 KPSR 300524
TAFPHX
TAF
KPHX 300524Z 3006/3106 11009KT P6SM SCT120 BKN200
     FM302000 22007KT P6SM SCT100=



000
FTUS45 KPSR 300524
TAFIPL
TAF
KIPL 300524Z 3006/3106 27010KT P6SM SKC
     FM301400 VRB04KT P6SM SKC
     FM302200 26014KT P6SM FEW250=



000
FTUS45 KPSR 300524
TAFIWA
TAF
KIWA 300524Z 3006/3106 12008KT P6SM SCT120 BKN200
     FM301900 25007KT P6SM SCT100
     FM310400 13007KT P6SM FEW120 BKN250
      AMD LTD TO CLD VIS AND WIND TIL 301300=



000
FTUS45 KPSR 300524
TAFBLH
TAF
KBLH 300524Z 3006/3106 25007KT P6SM FEW250
     FM301100 34006KT P6SM FEW120
     FM301800 18012KT P6SM FEW120 SCT250=



000
FTUS45 KPSR 300524
TAFIWA
TAF
KIWA 300524Z 3006/3106 12008KT P6SM SCT120 BKN200
     FM301900 25007KT P6SM SCT100
     FM310400 13007KT P6SM FEW120 BKN250
      AMD LTD TO CLD VIS AND WIND TIL 301300=



000
FTUS45 KPSR 300436 AAE
TAFPHX
TAF AMD
KPHX 300436Z 3005/3024 16010KT P6SM VCTS SCT100CB BKN150
     FM300530 11009KT P6SM SCT120 BKN250
     FM302000 23007KT P6SM SCT100=



000
FTUS45 KPSR 300436 AAE
TAFPHX
TAF AMD
KPHX 300436Z 3005/3024 16010KT P6SM VCTS SCT100CB BKN150
     FM300530 11009KT P6SM SCT120 BKN250
     FM302000 23007KT P6SM SCT100=



000
FTUS45 KPSR 300314 AAD
TAFPHX
TAF AMD
KPHX 300314Z 3003/3024 14012G24KT P6SM VCTS SCT100CB BKN200
      TEMPO 3003/3004 3SM TSRA BKN090CB OVC150
     FM300500 10009KT P6SM SCT120 BKN250
     FM302000 23007KT P6SM SCT100=



000
FTUS45 KPSR 300255 AAC
TAFPHX
TAF AMD
KPHX 300255Z 3003/3024 20010KT P6SM VCTS SCT100CB BKN200
     FM300310 14012G24KT 5SM BLDU VCTS SCT100CB BKN200
     FM300500 10007KT P6SM SCT120 BKN250
     FM302000 23007KT P6SM SCT100=



000
FTUS45 KPSR 300255 AAC
TAFPHX
TAF AMD
KPHX 300255Z 3003/3024 20010KT P6SM VCTS SCT100CB BKN200
     FM300310 14012G24KT 5SM BLDU VCTS SCT100CB BKN200
     FM300500 10007KT P6SM SCT120 BKN250
     FM302000 23007KT P6SM SCT100=



000
FTUS45 KPSR 300243 AAD
TAFIWA
TAF AMD
KIWA 300243Z 3003/3024 13012KT P6SM VCTS SCT100CB BKN200
      TEMPO 3003/3004 17012G27KT 3SM BLDU
     FM300400 13008KT P6SM SCT120 BKN250
     FM301900 25007KT P6SM SCT100
      AMD LTD TO CLD VIS AND WIND 3003/3013=



000
FTUS45 KPSR 300243 AAD
TAFIWA
TAF AMD
KIWA 300243Z 3003/3024 13012KT P6SM VCTS SCT100CB BKN200
      TEMPO 3003/3004 17012G27KT 3SM BLDU
     FM300400 13008KT P6SM SCT120 BKN250
     FM301900 25007KT P6SM SCT100
      AMD LTD TO CLD VIS AND WIND 3003/3013=



000
FTUS45 KPSR 300243 AAD
TAFIWA
TAF AMD
KIWA 300243Z 3003/3024 13012KT P6SM VCTS SCT100CB BKN200
      TEMPO 3003/3004 17012G27KT 3SM BLDU
     FM300400 13008KT P6SM SCT120 BKN250
     FM301900 25007KT P6SM SCT100
      AMD LTD TO CLD VIS AND WIND 3003/3013=



000
FTUS45 KPSR 300243 AAD
TAFIWA
TAF AMD
KIWA 300243Z 3003/3024 13012KT P6SM VCTS SCT100CB BKN200
      TEMPO 3003/3004 17012G27KT 3SM BLDU
     FM300400 13008KT P6SM SCT120 BKN250
     FM301900 25007KT P6SM SCT100
      AMD LTD TO CLD VIS AND WIND 3003/3013=



000
FTUS45 KPSR 300229 AAC
TAFIWA
TAF AMD
KIWA 300229Z 3002/3024 13012KT P6SM VCTS SCT100CB BKN200
      TEMPO 3002/3004 17012G22KT
     FM300400 13008KT P6SM SCT120 BKN250
     FM301900 25007KT P6SM SCT100
      AMD LTD TO CLD VIS AND WIND 3003/3013=



000
FTUS45 KPSR 300229 AAC
TAFIWA
TAF AMD
KIWA 300229Z 3002/3024 13012KT P6SM VCTS SCT100CB BKN200
      TEMPO 3002/3004 17012G22KT
     FM300400 13008KT P6SM SCT120 BKN250
     FM301900 25007KT P6SM SCT100
      AMD LTD TO CLD VIS AND WIND 3003/3013=



000
FTUS45 KPSR 300211 AAB
TAFPHX
TAF AMD
KPHX 300211Z 3002/3024 20010KT P6SM VCTS SCT100CB BKN200
      TEMPO 3002/3004 13014KT
     FM300500 10007KT P6SM SCT120 BKN250
     FM302000 23007KT P6SM SCT100=



000
FTUS45 KPSR 300148 AAB
TAFIWA
TAF AMD
KIWA 300148Z 3002/3024 13012G22KT P6SM VCTS SCT100CB BKN200
      TEMPO 3002/3003 3SM TS BLDU SCT100CB BKN200
     FM300400 12006KT P6SM SCT120 BKN250
     FM301900 25007KT P6SM SCT100
      AMD LTD TO CLD VIS AND WIND 3003/3013=



000
FTUS45 KPSR 300148 AAB
TAFIWA
TAF AMD
KIWA 300148Z 3002/3024 13012G22KT P6SM VCTS SCT100CB BKN200
      TEMPO 3002/3003 3SM TS BLDU SCT100CB BKN200
     FM300400 12006KT P6SM SCT120 BKN250
     FM301900 25007KT P6SM SCT100
      AMD LTD TO CLD VIS AND WIND 3003/3013=



000
FTUS45 KPSR 300148 AAB
TAFIWA
TAF AMD
KIWA 300148Z 3002/3024 13012G22KT P6SM VCTS SCT100CB BKN200
      TEMPO 3002/3003 3SM TS BLDU SCT100CB BKN200
     FM300400 12006KT P6SM SCT120 BKN250
     FM301900 25007KT P6SM SCT100
      AMD LTD TO CLD VIS AND WIND 3003/3013=



000
FTUS45 KPSR 300148 AAB
TAFIWA
TAF AMD
KIWA 300148Z 3002/3024 13012G22KT P6SM VCTS SCT100CB BKN200
      TEMPO 3002/3003 3SM TS BLDU SCT100CB BKN200
     FM300400 12006KT P6SM SCT120 BKN250
     FM301900 25007KT P6SM SCT100
      AMD LTD TO CLD VIS AND WIND 3003/3013=



000
FTUS45 KPSR 300129 AAA
TAFIPL
TAF AMD
KIPL 300129Z 3001/3024 16008KT P6SM FEW110
     FM300300 27010KT P6SM FEW120
     FM301400 VRB04KT P6SM SKC
     FM302200 26012KT P6SM FEW250=



000
FTUS45 KPSR 300113 AAA
TAFPHX
TAF AMD
KPHX 300113Z 3001/3024 25008KT P6SM VCTS FEW100CB SCT250
      TEMPO 3001/3002 15012G20KT SCT100CB
     FM300300 08012KT P6SM SCT100 BKN200
     FM300500 11005KT P6SM SCT120 BKN250
     FM302000 23007KT P6SM SCT100=



000
FTUS45 KPSR 300113 AAA
TAFPHX
TAF AMD
KPHX 300113Z 3001/3024 25008KT P6SM VCTS FEW100CB SCT250
      TEMPO 3001/3002 15012G20KT SCT100CB
     FM300300 08012KT P6SM SCT100 BKN200
     FM300500 11005KT P6SM SCT120 BKN250
     FM302000 23007KT P6SM SCT100=



000
FTUS45 KPSR 300037 AAA
TAFIWA
TAF AMD
KIWA 300037Z 3001/3024 27008KT P6SM SCT100 SCT250
     FM300130 12012G22KT P6SM VCTS SCT100CB BKN200
     FM300400 12006KT P6SM SCT120 BKN250
     FM301900 25007KT P6SM SCT100
      AMD LTD TO CLD VIS AND WIND 3003/3013=



000
FTUS45 KPSR 300037 AAA
TAFIWA
TAF AMD
KIWA 300037Z 3001/3024 27008KT P6SM SCT100 SCT250
     FM300130 12012G22KT P6SM VCTS SCT100CB BKN200
     FM300400 12006KT P6SM SCT120 BKN250
     FM301900 25007KT P6SM SCT100
      AMD LTD TO CLD VIS AND WIND 3003/3013=



000
FTUS45 KPSR 292323
TAFIWA
TAF
KIWA 292323Z 3000/3024 27008KT P6SM SCT100 SCT250
     FM300200 09014KT P6SM VCTS SCT100CB BKN200
     FM300400 12006KT P6SM SCT120 BKN250
     FM301900 25007KT P6SM SCT100
      AMD LTD TO CLD VIS AND WIND 3003/3013=



000
FTUS45 KPSR 292323
TAFIPL
TAF
KIPL 292323Z 3000/3024 21010KT P6SM FEW110
     FM300200 27010KT P6SM FEW120
     FM301400 VRB04KT P6SM SKC
     FM302200 26012KT P6SM FEW250=



000
FTUS45 KPSR 292323
TAFIPL
TAF
KIPL 292323Z 3000/3024 21010KT P6SM FEW110
     FM300200 27010KT P6SM FEW120
     FM301400 VRB04KT P6SM SKC
     FM302200 26012KT P6SM FEW250=



000
FTUS45 KPSR 292323
TAFPHX
TAF
KPHX 292323Z 3000/3024 25008KT P6SM FEW100 SCT250
     FM300300 08012KT P6SM SCT100 BKN200
     FM300500 11005KT P6SM SCT120 BKN250
     FM302000 23007KT P6SM SCT100=



000
FTUS45 KPSR 292323
TAFIWA
TAF
KIWA 292323Z 3000/3024 27008KT P6SM SCT100 SCT250
     FM300200 09014KT P6SM VCTS SCT100CB BKN200
     FM300400 12006KT P6SM SCT120 BKN250
     FM301900 25007KT P6SM SCT100
      AMD LTD TO CLD VIS AND WIND 3003/3013=



000
FTUS45 KPSR 292323
TAFIWA
TAF
KIWA 292323Z 3000/3024 27008KT P6SM SCT100 SCT250
     FM300200 09014KT P6SM VCTS SCT100CB BKN200
     FM300400 12006KT P6SM SCT120 BKN250
     FM301900 25007KT P6SM SCT100
      AMD LTD TO CLD VIS AND WIND 3003/3013=



000
FTUS45 KPSR 292323
TAFBLH
TAF
KBLH 292323Z 3000/3024 20011KT P6SM FEW100 SCT250
     FM300400 26007KT P6SM FEW250
     FM301200 34006KT P6SM FEW120
     FM301800 20008KT P6SM FEW120 SCT250=



000
FTUS45 KPSR 292323
TAFBLH
TAF
KBLH 292323Z 3000/3024 20011KT P6SM FEW100 SCT250
     FM300400 26007KT P6SM FEW250
     FM301200 34006KT P6SM FEW120
     FM301800 20008KT P6SM FEW120 SCT250=



000
FTUS45 KPSR 292323
TAFPHX
TAF
KPHX 292323Z 3000/3024 25008KT P6SM FEW100 SCT250
     FM300300 08012KT P6SM SCT100 BKN200
     FM300500 11005KT P6SM SCT120 BKN250
     FM302000 23007KT P6SM SCT100=



000
FTUS45 KPSR 292323
TAFIWA
TAF
KIWA 292323Z 3000/3024 27008KT P6SM SCT100 SCT250
     FM300200 09014KT P6SM VCTS SCT100CB BKN200
     FM300400 12006KT P6SM SCT120 BKN250
     FM301900 25007KT P6SM SCT100
      AMD LTD TO CLD VIS AND WIND 3003/3013=



000
FTUS45 KPSR 292005 AAA
TAFIWA
TAF AMD
KIWA 292005Z 2920/3018 26007KT P6SM FEW100 SCT250
     FM300200 15010KT P6SM VCTS SCT110CB BKN200
     FM300500 12006KT P6SM FEW100 SCT250=



000
FTUS45 KPSR 292005 AAA
TAFIWA
TAF AMD
KIWA 292005Z 2920/3018 26007KT P6SM FEW100 SCT250
     FM300200 15010KT P6SM VCTS SCT110CB BKN200
     FM300500 12006KT P6SM FEW100 SCT250=



000
FTUS45 KPSR 292004 AAA
TAFPHX
TAF AMD
KPHX 292004Z 2920/3018 11006KT P6SM FEW250
     FM292100 27008KT P6SM FEW100 SCT250
     FM300300 14015G25KT P6SM VCTS SCT110CB BKN200
     FM300600 10005KT P6SM FEW100 SCT250=



000
FTUS45 KPSR 292004 AAA
TAFPHX
TAF AMD
KPHX 292004Z 2920/3018 11006KT P6SM FEW250
     FM292100 27008KT P6SM FEW100 SCT250
     FM300300 14015G25KT P6SM VCTS SCT110CB BKN200
     FM300600 10005KT P6SM FEW100 SCT250=



000
FTUS45 KPSR 291720
TAFIWA
TAF
KIWA 291720Z 2918/3018 14006KT P6SM FEW250
     FM292000 26007KT P6SM FEW100 SCT250
     FM300200 15010KT P6SM SCT100 BKN200
     FM300500 12006KT P6SM FEW100 SCT250=



000
FTUS45 KPSR 291720
TAFPHX
TAF
KPHX 291720Z 2918/3018 11006KT P6SM FEW250
     FM292100 27008KT P6SM FEW100 SCT250
     FM300300 14008KT P6SM SCT100 BKN200
     FM300600 10005KT P6SM FEW100 SCT250=



000
FTUS45 KPSR 291720
TAFBLH
TAF
KBLH 291720Z 2918/3018 VRB04KT P6SM SKC
     FM292100 19009KT P6SM FEW100 SCT250
     FM300400 24005KT P6SM FEW100 SCT250=



000
FTUS45 KPSR 291720
TAFIWA
TAF
KIWA 291720Z 2918/3018 14006KT P6SM FEW250
     FM292000 26007KT P6SM FEW100 SCT250
     FM300200 15010KT P6SM SCT100 BKN200
     FM300500 12006KT P6SM FEW100 SCT250=



000
FTUS45 KPSR 291720
TAFIPL
TAF
KIPL 291720Z 2918/3018 26005KT P6SM FEW250
      TEMPO 2921/3001 14005KT=



000
FTUS45 KPSR 291443 AAA
TAFPHX
TAF AMD
KPHX 291443Z 2915/3012 10005KT P6SM FEW250
     FM292100 27008KT P6SM FEW100 SCT200
     FM300300 14008KT P6SM SCT100 BKN200=



000
FTUS45 KPSR 291443 AAA
TAFPHX
TAF AMD
KPHX 291443Z 2915/3012 10005KT P6SM FEW250
     FM292100 27008KT P6SM FEW100 SCT200
     FM300300 14008KT P6SM SCT100 BKN200=



000
FTUS45 KPSR 291120
TAFPHX
TAF
KPHX 291120Z 2912/3012 10005KT P6SM FEW250
     FM292200 27008KT P6SM FEW100 SCT200
     FM300300 14008KT P6SM SCT100 BKN200=



000
FTUS45 KPSR 291120
TAFBLH
TAF
KBLH 291120Z 2912/3012 24007KT P6SM SKC
     FM292100 19009KT P6SM FEW100 SCT200
     FM300400 25005KT P6SM FEW100 SCT200=



000
FTUS45 KPSR 291120
TAFIWA
TAF
KIWA 291120Z 2912/3012 12006KT P6SM FEW200
     FM292100 26007KT P6SM FEW100 SCT200
     FM300200 15010KT P6SM SCT100 BKN200
      AMD LTD TO CLD VIS AND WIND TIL 291300=



000
FTUS45 KPSR 291120
TAFPHX
TAF
KPHX 291120Z 2912/3012 10005KT P6SM FEW250
     FM292200 27008KT P6SM FEW100 SCT200
     FM300300 14008KT P6SM SCT100 BKN200=



000
FTUS45 KPSR 291120
TAFIWA
TAF
KIWA 291120Z 2912/3012 12006KT P6SM FEW200
     FM292100 26007KT P6SM FEW100 SCT200
     FM300200 15010KT P6SM SCT100 BKN200
      AMD LTD TO CLD VIS AND WIND TIL 291300=



000
FTUS45 KPSR 291120
TAFIWA
TAF
KIWA 291120Z 2912/3012 12006KT P6SM FEW200
     FM292100 26007KT P6SM FEW100 SCT200
     FM300200 15010KT P6SM SCT100 BKN200
      AMD LTD TO CLD VIS AND WIND TIL 291300=



000
FTUS45 KPSR 291120
TAFIPL
TAF
KIPL 291120Z 2912/3012 26005KT P6SM FEW100 FEW200
      TEMPO 2921/3001 14005KT=



000
FTUS45 KPSR 291120
TAFBLH
TAF
KBLH 291120Z 2912/3012 24007KT P6SM SKC
     FM292100 19009KT P6SM FEW100 SCT200
     FM300400 25005KT P6SM FEW100 SCT200=



000
FTUS45 KPSR 291120
TAFIPL
TAF
KIPL 291120Z 2912/3012 26005KT P6SM FEW100 FEW200
      TEMPO 2921/3001 14005KT=



000
FTUS45 KPSR 291120
TAFIWA
TAF
KIWA 291120Z 2912/3012 12006KT P6SM FEW200
     FM292100 26007KT P6SM FEW100 SCT200
     FM300200 15010KT P6SM SCT100 BKN200
      AMD LTD TO CLD VIS AND WIND TIL 291300=



000
FTUS45 KPSR 290903 AAA
TAFPHX
TAF AMD
KPHX 290903Z 2909/3006 VRB06KT P6SM BKN250
     FM291000 10005KT P6SM FEW250
     FM292200 27008KT P6SM VCSH FEW100 SCT150 SCT250
     FM300300 14010KT P6SM SCT100 BKN200=



000
FTUS45 KPSR 290903 AAA
TAFPHX
TAF AMD
KPHX 290903Z 2909/3006 VRB06KT P6SM BKN250
     FM291000 10005KT P6SM FEW250
     FM292200 27008KT P6SM VCSH FEW100 SCT150 SCT250
     FM300300 14010KT P6SM SCT100 BKN200=



000
FTUS45 KPSR 290520
TAFIWA
TAF
KIWA 290520Z 2906/3006 13006KT P6SM SCT250
     FM291900 27007KT P6SM FEW100 SCT250
     FM300200 13008KT P6SM SCT100 SCT150 BKN250
      AMD LTD TO CLD VIS AND WIND TIL 291300=



000
FTUS45 KPSR 290520
TAFPHX
TAF
KPHX 290520Z 2906/3006 VRB06KT P6SM BKN250
     FM291000 10005KT P6SM FEW250
     FM292200 27010KT P6SM FEW100 SCT150 SCT250=



000
FTUS45 KPSR 290520
TAFIWA
TAF
KIWA 290520Z 2906/3006 13006KT P6SM SCT250
     FM291900 27007KT P6SM FEW100 SCT250
     FM300200 13008KT P6SM SCT100 SCT150 BKN250
      AMD LTD TO CLD VIS AND WIND TIL 291300=



000
FTUS45 KPSR 290520
TAFPHX
TAF
KPHX 290520Z 2906/3006 VRB06KT P6SM BKN250
     FM291000 10005KT P6SM FEW250
     FM292200 27010KT P6SM FEW100 SCT150 SCT250=



000
FTUS45 KPSR 290520
TAFIWA
TAF
KIWA 290520Z 2906/3006 13006KT P6SM SCT250
     FM291900 27007KT P6SM FEW100 SCT250
     FM300200 13008KT P6SM SCT100 SCT150 BKN250
      AMD LTD TO CLD VIS AND WIND TIL 291300=



000
FTUS45 KPSR 290520
TAFIPL
TAF
KIPL 290520Z 2906/3006 27008KT P6SM SKC
     FM291900 VRB05KT P6SM FEW100 SCT150 SCT250
      TEMPO 2921/3001 14005KT=



000
FTUS45 KPSR 290520
TAFBLH
TAF
KBLH 290520Z 2906/3006 24007KT P6SM SKC
     FM292000 18009KT P6SM FEW100 SCT150 SCT250=



000
FTUS45 KPSR 290520
TAFIWA
TAF
KIWA 290520Z 2906/3006 13006KT P6SM SCT250
     FM291900 27007KT P6SM FEW100 SCT250
     FM300200 13008KT P6SM SCT100 SCT150 BKN250
      AMD LTD TO CLD VIS AND WIND TIL 291300=



000
FTUS45 KPSR 290520
TAFIPL
TAF
KIPL 290520Z 2906/3006 27008KT P6SM SKC
     FM291900 VRB05KT P6SM FEW100 SCT150 SCT250
      TEMPO 2921/3001 14005KT=



000
FTUS45 KPSR 290520
TAFBLH
TAF
KBLH 290520Z 2906/3006 24007KT P6SM SKC
     FM292000 18009KT P6SM FEW100 SCT150 SCT250=



000
FTUS45 KPSR 290258 AAA
TAFPHX
TAF AMD
KPHX 290258Z 2903/2924 25003KT P6SM SCT150 BKN250
     FM290600 VRB06KT P6SM SCT250
     FM291000 10005KT P6SM FEW250=



000
FTUS45 KPSR 290258 AAA
TAFPHX
TAF AMD
KPHX 290258Z 2903/2924 25003KT P6SM SCT150 BKN250
     FM290600 VRB06KT P6SM SCT250
     FM291000 10005KT P6SM FEW250=



000
FTUS45 KPSR 282346 CCA
TAFIWA
TAF COR
KIWA 282346Z 2900/2924 29007KT P6SM SCT120 BKN250
     FM290600 13007KT P6SM SCT250
     FM291900 27007KT P6SM FEW100 SCT250
      AMD LTD TO CLD VIS AND WIND 2903/2913=



000
FTUS45 KPSR 282346 CCA
TAFIWA
TAF COR
KIWA 282346Z 2900/2924 29007KT P6SM SCT120 BKN250
     FM290600 13007KT P6SM SCT250
     FM291900 27007KT P6SM FEW100 SCT250
      AMD LTD TO CLD VIS AND WIND 2903/2913=



000
FTUS45 KPSR 282340
TAFPHX
TAF
KPHX 282340Z 2900/2924 25006KT P6SM SCT120 BKN250
     FM290600 VRB06KT P6SM FEW150 SCT250
     FM291000 10005KT P6SM FEW250=



000
FTUS45 KPSR 282340
TAFIPL
TAF
KIPL 282340Z 2900/2924 VRB05KT P6SM SCT100 SCT200
      TEMPO 2900/2903 15007KT
     FM290300 27008KT P6SM SKC
     FM291900 VRB05KT P6SM SKC=



000
FTUS45 KPSR 282340
TAFBLH
TAF
KBLH 282340Z 2900/2924 14007KT P6SM SKC
     FM290300 24007KT P6SM SKC=



000
FTUS45 KPSR 282340
TAFIWA
TAF
KIWA 282340Z 2900/2924 29007KT P6SM SCT120 BKN250
     FM290600 13007KT P6SM SCT250
     FM291900 27007KT P6SM FEW100 SCT250=



000
FTUS45 KPSR 282340
TAFIWA
TAF
KIWA 282340Z 2900/2924 29007KT P6SM SCT120 BKN250
     FM290600 13007KT P6SM SCT250
     FM291900 27007KT P6SM FEW100 SCT250=



000
FTUS45 KPSR 282059 AAA
TAFPHX
TAF AMD
KPHX 282059Z 2821/2918 VRB05KT P6SM SCT250
     FM282200 27008KT P6SM SCT120 SCT250
     FM290400 16006KT P6SM FEW120 SCT250
     FM290800 10005KT P6SM FEW120 SCT250=



000
FTUS45 KPSR 281727
TAFPHX
TAF
KPHX 281727Z 2818/2918 10005KT P6SM FEW120 SCT250
     FM282100 27008KT P6SM SCT120 SCT250
     FM290400 16006KT P6SM FEW120 SCT250
     FM290800 10005KT P6SM FEW120 SCT250=



000
FTUS45 KPSR 281727
TAFIWA
TAF
KIWA 281727Z 2818/2918 12005KT P6SM FEW120 SCT250
     FM282100 29007KT P6SM SCT120 SCT250
     FM290400 13007KT P6SM FEW120 SCT250=



000
FTUS45 KPSR 281727
TAFIPL
TAF
KIPL 281727Z 2818/2918 27008KT P6SM SKC
      TEMPO 2820/2823 VRB05KT P6SM
     FM290000 26008KT P6SM SKC=



000
FTUS45 KPSR 281727
TAFBLH
TAF
KBLH 281727Z 2818/2918 14007KT P6SM SKC
     FM290300 24007KT P6SM SKC=



000
FTUS45 KPSR 281727
TAFPHX
TAF
KPHX 281727Z 2818/2918 10005KT P6SM FEW120 SCT250
     FM282100 27008KT P6SM SCT120 SCT250
     FM290400 16006KT P6SM FEW120 SCT250
     FM290800 10005KT P6SM FEW120 SCT250=



000
FTUS45 KPSR 281727
TAFIPL
TAF
KIPL 281727Z 2818/2918 27008KT P6SM SKC
      TEMPO 2820/2823 VRB05KT P6SM
     FM290000 26008KT P6SM SKC=



000
FTUS45 KPSR 281727
TAFBLH
TAF
KBLH 281727Z 2818/2918 14007KT P6SM SKC
     FM290300 24007KT P6SM SKC=



000
FTUS45 KPSR 281727
TAFIWA
TAF
KIWA 281727Z 2818/2918 12005KT P6SM FEW120 SCT250
     FM282100 29007KT P6SM SCT120 SCT250
     FM290400 13007KT P6SM FEW120 SCT250=



000
FTUS45 KPSR 281727
TAFIWA
TAF
KIWA 281727Z 2818/2918 12005KT P6SM FEW120 SCT250
     FM282100 29007KT P6SM SCT120 SCT250
     FM290400 13007KT P6SM FEW120 SCT250=



000
FTUS45 KPSR 281450 AAA
TAFPHX
TAF AMD
KPHX 281450Z 2815/2912 10005KT P6SM FEW120 SCT250
     FM282100 27008KT P6SM SCT120 SCT250
     FM290400 VRB03KT P6SM FEW120 SCT250
     FM290800 10005KT P6SM FEW120 SCT250=



000
FTUS45 KPSR 281450 AAA
TAFPHX
TAF AMD
KPHX 281450Z 2815/2912 10005KT P6SM FEW120 SCT250
     FM282100 27008KT P6SM SCT120 SCT250
     FM290400 VRB03KT P6SM FEW120 SCT250
     FM290800 10005KT P6SM FEW120 SCT250=



000
FTUS45 KPSR 281130
TAFIWA
TAF
KIWA 281130Z 2812/2912 12005KT P6SM FEW120 SCT250
     FM282100 29007KT P6SM SCT120 SCT250
     FM290400 13005KT P6SM FEW120 SCT250
      AMD LTD TO CLD VIS AND WIND TIL 281300=



000
FTUS45 KPSR 281130
TAFBLH
TAF
KBLH 281130Z 2812/2912 VRB05KT P6SM SKC
     FM281800 14007KT P6SM SKC
     FM290300 23006KT P6SM SKC=



000
FTUS45 KPSR 281130
TAFBLH
TAF
KBLH 281130Z 2812/2912 VRB05KT P6SM SKC
     FM281800 14007KT P6SM SKC
     FM290300 23006KT P6SM SKC=



000
FTUS45 KPSR 281130
TAFIWA
TAF
KIWA 281130Z 2812/2912 12005KT P6SM FEW120 SCT250
     FM282100 29007KT P6SM SCT120 SCT250
     FM290400 13005KT P6SM FEW120 SCT250
      AMD LTD TO CLD VIS AND WIND TIL 281300=



000
FTUS45 KPSR 281130
TAFPHX
TAF
KPHX 281130Z 2812/2912 10005KT P6SM FEW120 SCT250
     FM282100 27008KT P6SM SCT120 SCT250
     FM290400 VRB03KT P6SM FEW120 SCT250
     FM290800 10005KT P6SM FEW120 SCT250=



000
FTUS45 KPSR 281130
TAFIPL
TAF
KIPL 281130Z 2812/2912 VRB04KT P6SM SKC
     FM290000 26008KT P6SM SKC=



000
FTUS45 KPSR 281130
TAFIWA
TAF
KIWA 281130Z 2812/2912 12005KT P6SM FEW120 SCT250
     FM282100 29007KT P6SM SCT120 SCT250
     FM290400 13005KT P6SM FEW120 SCT250
      AMD LTD TO CLD VIS AND WIND TIL 281300=



000
FTUS45 KPSR 281130
TAFPHX
TAF
KPHX 281130Z 2812/2912 10005KT P6SM FEW120 SCT250
     FM282100 27008KT P6SM SCT120 SCT250
     FM290400 VRB03KT P6SM FEW120 SCT250
     FM290800 10005KT P6SM FEW120 SCT250=



000
FTUS45 KPSR 281130
TAFIWA
TAF
KIWA 281130Z 2812/2912 12005KT P6SM FEW120 SCT250
     FM282100 29007KT P6SM SCT120 SCT250
     FM290400 13005KT P6SM FEW120 SCT250
      AMD LTD TO CLD VIS AND WIND TIL 281300=



000
FTUS45 KPSR 281130
TAFIPL
TAF
KIPL 281130Z 2812/2912 VRB04KT P6SM SKC
     FM290000 26008KT P6SM SKC=



    US Dept of Commerce
    National Oceanic and Atmospheric Administration
    National Weather Service
    1325 East West Highway
    Silver Spring, MD 20910
    Page Author: NWS Internet Services Team
Disclaimer
Information Quality
Credits
Glossary
Privacy Policy
Freedom of Information Act (FOIA)
About Us
Career Opportunities